Time;durP1;ratioP1;P1;durP2;ratioP2;P2;SDS_P1;SDS_P2;PMS_P1;PMS_P2;Temp;Humidity;BMP_temperature;BMP_pressure;BME280_temperature;BME280_humidity;BME280_pressure;Samples;Min_cycle;Max_cycle;Signal;HPM_P1;HPM_P2
2021/12/21 00:01:32;;;;;;;14.17;8.50;;;-2.30;95.60;;;-4.00;96.65;98874.94;5113271;27;20465;-79
2021/12/21 00:04:00;;;;;;;16.30;9.50;;;-2.30;94.90;;;-4.09;96.82;98857.03;5113214;27;20486;-77
2021/12/21 00:06:28;;;;;;;12.70;8.33;;;-2.20;94.90;;;-4.13;97.11;98837.91;5112848;27;20458;-78
2021/12/21 00:08:56;;;;;;;14.07;10.37;;;-2.20;94.50;;;-4.08;97.17;98865.81;5113331;27;20859;-78
2021/12/21 00:11:23;;;;;;;11.53;8.20;;;-2.30;94.40;;;-4.10;97.28;98858.00;5113785;28;20535;-77
2021/12/21 00:14:13;;;;;;;12.23;9.17;;;-2.30;94.60;;;-4.32;97.20;98837.44;5119581;27;20458;-78
2021/12/21 00:17:13;;;;;;;12.23;8.80;;;-2.30;94.30;;;-4.18;97.37;98871.69;5109504;28;20472;-78
2021/12/21 00:20:04;;;;;;;13.00;8.87;;;-2.40;94.50;;;-4.39;97.69;98852.81;5115906;27;20845;-79
2021/12/21 00:23:05;;;;;;;18.33;8.80;;;-2.50;94.20;;;-4.63;97.96;98832.34;5108329;28;20736;-77
2021/12/21 00:25:27;;;;;;;10.53;7.63;;;-2.60;94.70;;;-4.45;98.40;98850.59;5118378;27;20501;-78
2021/12/21 00:27:55;;;;;;;10.50;8.20;;;-2.70;97.80;;;-4.27;97.23;98857.31;5108963;27;20464;-79
2021/12/21 00:30:22;;;;;;;13.50;8.40;;;-2.60;96.70;;;-4.27;96.75;98845.91;5113279;28;20915;-78
2021/12/21 00:32:53;;;;;;;12.50;8.27;;;-2.50;95.10;;;-4.27;96.87;98857.31;5111795;28;20450;-79
2021/12/21 00:35:20;;;;;;;12.23;8.00;;;-2.50;94.10;;;-4.38;97.26;98856.31;5127249;27;20452;-79
2021/12/21 00:37:47;;;;;;;10.27;8.47;;;-2.60;94.00;;;-4.43;96.72;98854.81;5121057;27;20470;-79
2021/12/21 00:40:15;;;;;;;14.10;9.13;;;-2.60;93.90;;;-4.65;96.86;98822.88;5074400;28;20518;-79
2021/12/21 00:42:48;;;;;;;11.53;8.17;;;-2.70;94.20;;;-4.46;97.60;98847.09;5109753;27;20434;-78
2021/12/21 00:45:22;;;;;;;12.60;8.67;;;-2.70;95.60;;;-4.48;97.71;98842.88;5113452;27;20929;-78
2021/12/21 00:47:53;;;;;;;11.47;8.40;;;-2.60;95.60;;;-4.49;97.19;98851.72;5111437;27;20460;-79
2021/12/21 00:50:23;;;;;;;9.97;8.07;;;-2.60;94.70;;;-4.56;97.22;98852.13;5095828;28;20451;-78
2021/12/21 00:52:54;;;;;;;15.30;9.43;;;-2.70;94.20;;;-4.48;97.29;98858.69;5096749;28;20510;-79
2021/12/21 00:55:24;;;;;;;12.97;9.90;;;-2.70;95.00;;;-4.48;97.04;98861.31;5129311;27;20475;-78
2021/12/21 00:57:51;;;;;;;13.77;9.67;;;-2.70;95.20;;;-4.63;96.84;98844.72;5121672;27;20443;-79
2021/12/21 01:00:21;;;;;;;14.57;9.60;;;-2.70;94.20;;;-4.56;97.26;98846.00;5121916;27;20455;-78
2021/12/21 01:02:51;;;;;;;13.63;9.97;;;-2.70;94.60;;;-4.58;97.33;98846.13;5123430;27;20447;-79
2021/12/21 01:05:25;;;;;;;14.60;9.73;;;-2.70;94.70;;;-4.59;97.26;98844.41;5106613;27;20496;-80
2021/12/21 01:07:55;;;;;;;14.00;9.50;;;-2.80;94.20;;;-4.59;96.91;98857.59;5097283;27;21115;-78
2021/12/21 01:13:26;;;;;;;14.63;10.10;;;-2.80;93.70;;;-4.80;97.08;98845.78;5103877;27;20443;-78
2021/12/21 01:16:13;;;;;;;20.80;10.60;;;-2.90;93.50;;;-4.66;96.61;98866.00;5143200;27;20475;-77
2021/12/21 01:18:55;;;;;;;13.83;9.67;;;-2.90;93.80;;;-4.68;96.96;98860.81;5116196;27;20443;-77
2021/12/21 01:21:27;;;;;;;16.40;9.30;;;-2.90;93.60;;;-4.68;96.75;98863.47;5127879;28;20439;-77
2021/12/21 01:24:11;;;;;;;12.47;9.30;;;-2.90;94.10;;;-4.69;97.02;98856.50;5122364;28;20519;-77
2021/12/21 01:26:50;;;;;;;17.93;9.70;;;-2.90;94.10;;;-4.82;97.92;98839.75;5134269;28;20447;-79
2021/12/21 01:29:25;;;;;;;12.03;8.93;;;-2.80;95.60;;;-4.65;97.78;98857.97;5116502;27;20507;-77
2021/12/21 01:32:00;;;;;;;11.93;8.30;;;-2.80;95.70;;;-4.68;98.19;98852.91;5112268;27;20848;-76
2021/12/21 01:34:40;;;;;;;15.20;9.77;;;-2.90;96.00;;;-4.72;97.77;98856.69;5110807;28;20490;-76
2021/12/21 01:37:17;;;;;;;13.77;9.73;;;-2.90;95.30;;;-4.92;97.58;98840.34;5096316;28;20482;-78
2021/12/21 01:42:44;;;;;;;12.77;8.23;;;-3.20;94.10;;;-5.24;99.25;98832.66;5095758;28;20460;-78
2021/12/21 01:50:56;;;;;;;10.87;8.93;;;-3.20;98.10;;;-5.19;97.67;98822.69;5097525;28;20485;-77
2021/12/21 01:53:23;;;;;;;13.10;7.97;;;-3.30;96.90;;;-5.02;97.38;98839.22;5094615;28;20467;-77
2021/12/21 01:55:50;;;;;;;8.67;7.50;;;-3.20;96.50;;;-4.93;97.82;98843.06;5113457;28;20748;-77
2021/12/21 01:58:18;;;;;;;12.63;8.80;;;-3.10;95.90;;;-5.14;97.56;98811.88;5108556;28;20460;-77
2021/12/21 02:00:46;;;;;;;11.80;7.30;;;-3.20;95.10;;;-5.07;97.22;98820.25;5112962;28;20799;-77
2021/12/21 02:03:13;;;;;;;10.70;7.50;;;-3.20;95.40;;;-4.89;97.52;98832.25;5118856;27;20445;-79
2021/12/21 02:05:40;;;;;;;11.40;7.73;;;-3.10;95.70;;;-5.05;97.87;98818.34;5133572;27;20542;-78
2021/12/21 02:08:09;;;;;;;9.47;6.70;;;-3.20;94.50;;;-4.96;97.68;98822.19;5133406;27;20450;-77
2021/12/21 02:10:36;;;;;;;11.43;7.67;;;-3.20;95.20;;;-5.01;97.44;98825.09;5136739;27;20455;-77
2021/12/21 02:13:04;;;;;;;8.17;6.77;;;-3.20;94.40;;;-5.16;97.70;98800.53;5138077;27;20459;-78
2021/12/21 02:15:31;;;;;;;10.60;7.07;;;-3.20;94.80;;;-5.01;97.59;98809.28;5137719;27;20443;-77
2021/12/21 02:20:56;;;;;;;10.53;7.30;;;-3.20;95.00;;;-5.07;97.24;98812.34;5125458;28;20978;-76
2021/12/21 02:23:29;;;;;;;10.87;7.00;;;-3.20;94.20;;;-5.22;97.24;98817.63;5098758;28;20942;-77
2021/12/21 02:26:22;;;;;;;9.10;6.93;;;-3.30;93.70;;;-5.46;97.22;98786.56;5099272;28;20483;-77
2021/12/21 02:29:10;;;;;;;10.20;6.33;;;-3.40;94.00;;;-5.34;97.75;98810.47;5089687;28;20478;-79
2021/12/21 02:31:38;;;;;;;9.87;6.40;;;-3.50;94.80;;;-5.25;97.67;98796.69;5111090;28;20451;-78
2021/12/21 02:34:07;;;;;;;7.63;6.07;;;-3.40;96.90;;;-5.09;97.47;98803.66;5112348;28;20593;-77
2021/12/21 02:36:46;;;;;;;13.93;6.53;;;-3.30;96.10;;;-5.10;97.62;98807.22;5115014;28;20482;-78
2021/12/21 02:39:15;;;;;;;10.40;6.30;;;-3.30;95.30;;;-5.08;97.38;98797.44;5099644;28;20458;-77
2021/12/21 02:41:43;;;;;;;9.73;6.57;;;-3.30;95.20;;;-5.27;97.59;98788.91;5114695;28;20454;-77
2021/12/21 02:44:11;;;;;;;8.20;5.23;;;-3.30;94.50;;;-5.28;97.76;98776.69;5108789;28;20458;-78
2021/12/21 02:46:39;;;;;;;11.53;6.80;;;-3.30;95.70;;;-5.13;97.71;98801.22;5111219;28;20917;-77
2021/12/21 02:49:18;;;;;;;10.93;6.30;;;-3.30;94.80;;;-5.20;97.32;98797.28;5120241;27;20467;-77
2021/12/21 02:51:48;;;;;;;10.80;5.60;;;-3.30;94.20;;;-5.10;97.55;98809.88;5097611;28;20488;-78
2021/12/21 02:54:20;;;;;;;11.80;6.50;;;-3.30;94.50;;;-5.17;97.04;98786.53;5103705;28;20477;-78
2021/12/21 02:56:48;;;;;;;10.67;6.87;;;-3.30;94.00;;;-5.19;97.07;98784.94;5111633;28;20476;-79
2021/12/21 02:59:15;;;;;;;9.77;6.40;;;-3.20;93.80;;;-5.20;97.02;98781.47;5114082;27;20538;-79
2021/12/21 03:01:44;;;;;;;11.40;6.47;;;-3.30;93.50;;;-5.34;97.19;98787.59;5114239;27;20469;-77
2021/12/21 03:04:11;;;;;;;10.97;5.93;;;-3.40;93.20;;;-5.36;97.22;98800.00;5113530;28;20957;-78
2021/12/21 03:12:33;;;;;;;10.03;6.47;;;-3.90;93.70;;;-5.74;98.42;98790.06;5096136;27;20462;-78
2021/12/21 03:14:59;;;;;;;9.30;6.43;;;-3.90;95.30;;;-5.81;98.61;98800.09;5112621;27;20528;-78
2021/12/21 03:17:26;;;;;;;10.20;6.57;;;-4.00;96.60;;;-5.95;98.62;98790.38;5114286;27;20496;-78
2021/12/21 03:19:54;;;;;;;12.67;6.53;;;-4.10;95.90;;;-5.91;98.70;98798.94;5111661;27;21128;-77
2021/12/21 03:22:22;;;;;;;7.70;6.43;;;-4.10;97.10;;;-6.07;98.77;98783.25;5115043;28;20450;-77
2021/12/21 03:24:50;;;;;;;7.90;6.73;;;-4.20;96.20;;;-6.04;98.37;98791.00;5111819;27;20518;-78
2021/12/21 03:27:17;;;;;;;8.67;6.20;;;-4.20;97.10;;;-6.05;98.67;98798.03;5079385;28;20453;-78
2021/12/21 03:29:44;;;;;;;10.43;7.20;;;-4.20;97.90;;;-6.21;98.70;98784.06;5114909;27;20459;-77
2021/12/21 03:32:11;;;;;;;11.27;6.50;;;-4.30;97.00;;;-6.26;98.61;98774.69;5117100;27;20460;-77
2021/12/21 03:34:39;;;;;;;14.70;7.53;;;-4.30;98.50;;;-6.28;98.83;98797.59;5097357;28;20462;-79
2021/12/21 03:37:12;;;;;;;12.10;6.43;;;-4.40;97.50;;;-6.32;99.85;98793.44;5115599;27;20494;-77
2021/12/21 03:39:39;;;;;;;12.00;6.90;;;-4.50;97.60;;;-6.45;99.70;98781.94;5110287;28;20451;-76
2021/12/21 03:42:10;;;;;;;11.77;8.10;;;-4.50;98.60;;;-6.36;99.73;98788.47;5116830;27;20527;-78
2021/12/21 03:44:37;;;;;;;11.67;7.63;;;-4.60;99.70;;;-6.34;100.00;98787.41;5111690;27;20464;-77
2021/12/21 03:47:08;;;;;;;12.90;7.20;;;-4.50;99.90;;;-6.75;99.69;98720.53;5110388;28;20485;-77
2021/12/21 03:49:57;;;;;;;11.00;8.30;;;-4.50;99.90;;;-6.31;100.00;98795.13;5114778;27;20470;-77
2021/12/21 03:52:26;;;;;;;12.67;6.50;;;-4.50;99.90;;;-6.19;99.04;98790.94;5112984;27;20455;-78
2021/12/21 03:54:58;;;;;;;11.53;6.60;;;-4.40;99.90;;;-6.19;98.57;98779.56;5104891;28;20463;-76
2021/12/21 03:57:27;;;;;;;7.40;6.13;;;-4.40;99.90;;;-5.98;97.56;98786.16;5118034;27;20443;-78
2021/12/21 03:59:55;;;;;;;12.90;6.80;;;-4.30;99.80;;;-6.29;98.06;98764.34;5114738;27;20782;-77
2021/12/21 04:02:24;;;;;;;7.27;5.30;;;-4.30;95.90;;;-6.25;97.70;98770.25;5114639;27;21022;-77
2021/12/21 04:04:53;;;;;;;9.00;5.30;;;-4.30;95.50;;;-6.52;99.05;98749.91;5112782;27;20512;-76
2021/12/21 04:07:23;;;;;;;7.20;5.43;;;-4.30;95.60;;;-6.36;99.72;98781.41;5116505;27;20771;-77
2021/12/21 04:09:51;;;;;;;8.30;5.60;;;-4.40;96.60;;;-6.35;99.72;98791.00;5110988;27;20451;-76
2021/12/21 04:12:18;;;;;;;12.07;6.07;;;-4.40;97.20;;;-6.53;100.00;98756.06;5096764;28;20508;-77
2021/12/21 04:14:47;;;;;;;10.43;5.77;;;-4.40;98.80;;;-6.36;100.00;98784.03;5119193;27;20971;-76
2021/12/21 04:17:21;;;;;;;9.77;6.20;;;-4.50;99.10;;;-6.31;99.48;98776.72;5112262;27;20947;-76
2021/12/21 04:19:48;;;;;;;9.83;5.10;;;-4.50;99.90;;;-6.55;99.69;98752.69;5112629;27;20547;-77
2021/12/21 04:22:16;;;;;;;8.70;5.87;;;-4.50;98.40;;;-6.62;99.77;98762.72;5118130;27;20777;-77
2021/12/21 04:24:43;;;;;;;9.73;5.80;;;-4.60;97.50;;;-6.36;99.27;98788.47;5113157;28;20471;-77
2021/12/21 04:27:11;;;;;;;6.70;5.70;;;-4.60;99.60;;;-6.41;98.97;98784.28;5111666;27;20471;-77
2021/12/21 04:29:38;;;;;;;12.13;6.03;;;-4.60;98.30;;;-6.53;98.60;98773.66;5117118;27;20474;-77
2021/12/21 04:32:08;;;;;;;11.53;6.83;;;-4.60;97.70;;;-6.47;98.91;98781.16;5116626;27;20551;-77
2021/12/21 04:34:35;;;;;;;10.67;5.47;;;-4.70;98.10;;;-6.77;98.13;98737.31;5113572;28;20447;-77
2021/12/21 04:37:02;;;;;;;10.40;6.27;;;-4.70;97.10;;;-6.54;98.23;98778.03;5110960;27;20578;-77
2021/12/21 04:39:35;;;;;;;9.27;5.37;;;-4.70;96.60;;;-6.66;98.93;98750.69;5114467;28;20870;-77
2021/12/21 04:42:02;;;;;;;9.20;4.53;;;-4.70;97.40;;;-6.43;97.58;98756.41;5111228;27;20455;-76
2021/12/21 04:44:29;;;;;;;6.73;6.10;;;-4.60;98.70;;;-6.37;97.60;98771.81;5119398;27;20461;-77
2021/12/21 04:46:56;;;;;;;9.23;5.90;;;-4.60;95.50;;;-6.41;97.61;98788.72;5112536;27;20563;-77
2021/12/21 04:49:25;;;;;;;10.80;6.07;;;-4.60;95.20;;;-6.45;97.62;98774.03;5115680;28;20456;-77
2021/12/21 04:51:52;;;;;;;10.87;5.70;;;-4.60;95.40;;;-6.47;97.25;98786.44;5113619;27;20952;-77
2021/12/21 04:54:19;;;;;;;8.60;5.97;;;-4.60;94.60;;;-6.66;97.73;98763.00;5117957;27;20492;-78
2021/12/21 04:56:46;;;;;;;12.97;6.57;;;-4.70;93.90;;;-6.55;99.10;98793.00;5110704;28;20550;-77
2021/12/21 04:59:14;;;;;;;11.13;6.87;;;-4.70;95.20;;;-6.60;99.37;98786.31;5116237;27;20559;-77
2021/12/21 05:01:41;;;;;;;9.83;6.80;;;-4.70;95.50;;;-6.69;99.10;98782.41;5113227;27;20969;-77
2021/12/21 05:04:08;;;;;;;11.67;9.33;;;-4.80;96.40;;;-6.63;99.26;98792.56;5129961;27;20453;-77
2021/12/21 05:06:36;;;;;;;10.50;7.40;;;-4.80;96.80;;;-6.63;98.71;98782.06;5114261;27;20567;-77
2021/12/21 05:09:12;;;;;;;10.77;7.37;;;-4.80;96.20;;;-6.59;98.68;98778.34;5114904;27;20559;-76
2021/12/21 05:11:42;;;;;;;8.73;6.00;;;-4.80;96.60;;;-6.29;96.46;98784.53;5097815;28;20456;-78
2021/12/21 05:14:12;;;;;;;8.87;6.20;;;-4.60;96.70;;;-6.32;95.30;98753.97;5118396;27;20465;-77
2021/12/21 05:16:40;;;;;;;11.43;6.37;;;-4.50;93.70;;;-6.47;95.58;98768.88;5116314;27;20577;-77
2021/12/21 05:19:07;;;;;;;8.50;6.10;;;-4.60;92.00;;;-6.49;96.14;98777.78;5116325;27;20964;-77
2021/12/21 05:21:36;;;;;;;8.50;6.17;;;-4.60;92.10;;;-6.52;96.31;98763.06;5114405;27;20502;-77
2021/12/21 05:24:05;;;;;;;13.07;6.60;;;-4.60;92.90;;;-6.33;95.90;98768.06;5088645;28;20460;-76
2021/12/21 05:26:32;;;;;;;11.70;6.07;;;-4.60;93.00;;;-6.56;96.80;98782.56;5111055;27;20220;-76
2021/12/21 05:29:01;;;;;;;8.40;6.33;;;-4.70;92.10;;;-6.76;98.07;98763.50;5099774;27;20541;-76
2021/12/21 05:31:30;;;;;;;10.57;6.87;;;-4.80;92.70;;;-6.74;97.68;98758.19;5113069;27;20463;-77
2021/12/21 05:33:57;;;;;;;17.57;8.60;;;-4.80;94.40;;;-6.43;96.71;98787.97;5110922;28;20459;-77
2021/12/21 05:36:25;;;;;;;20.23;8.53;;;-4.70;94.80;;;-6.42;95.76;98787.88;5118441;28;20446;-77
2021/12/21 05:39:18;;;;;;;22.83;10.10;;;-4.60;93.30;;;-6.74;97.61;98769.53;5113397;27;21095;-77
2021/12/21 05:42:05;;;;;;;11.00;8.10;;;-4.80;92.20;;;-6.71;97.30;98787.75;5110567;28;20532;-76
2021/12/21 05:44:51;;;;;;;12.80;8.80;;;-4.90;93.30;;;-6.81;97.67;98793.63;5111739;28;20565;-78
2021/12/21 05:47:38;;;;;;;16.30;7.00;;;-4.90;93.10;;;-6.90;97.30;98790.59;5112534;27;20484;-78
2021/12/21 05:50:23;;;;;;;12.00;8.20;;;-5.00;93.10;;;-6.78;97.35;98785.56;5107867;28;20434;-77
2021/12/21 05:53:10;;;;;;;12.10;8.70;;;-5.00;94.30;;;-6.83;97.68;98786.66;5112777;27;20479;-77
2021/12/21 05:55:57;;;;;;;11.47;8.17;;;-5.00;94.60;;;-6.92;97.47;98788.97;5112594;28;20527;-75
2021/12/21 05:58:42;;;;;;;8.40;6.53;;;-5.10;93.90;;;-6.90;98.00;98784.47;5107315;28;20458;-77
2021/12/21 06:01:28;;;;;;;13.20;8.30;;;-5.10;94.80;;;-6.86;97.98;98781.59;5105941;28;20453;-73
2021/12/21 06:04:13;;;;;;;17.17;12.20;;;-5.10;95.90;;;-6.77;98.18;98787.25;5102645;28;20466;-71
2021/12/21 06:06:59;;;;;;;15.60;10.90;;;-5.00;97.20;;;-6.76;97.85;98786.31;5105786;28;20498;-70
2021/12/21 06:09:47;;;;;;;13.17;8.87;;;-5.00;98.00;;;-6.66;97.62;98791.91;5107518;28;20438;-71
2021/12/21 06:12:52;;;;;;;12.53;9.00;;;-4.90;97.40;;;-6.63;96.40;98797.81;5087671;28;20455;-71
2021/12/21 06:15:48;;;;;;;18.17;10.17;;;-4.80;95.30;;;-6.53;96.49;98797.31;5111027;28;20553;-69
2021/12/21 06:27:59;;;;;;;8.57;6.27;;;-4.80;91.10;;;-6.71;95.60;98774.59;5108858;27;20785;-69
2021/12/21 06:30:45;;;;;;;11.60;6.60;;;-4.80;91.70;;;-6.63;95.88;98789.13;5111829;28;20788;-70
2021/12/21 06:33:31;;;;;;;11.37;7.43;;;-4.80;91.90;;;-6.64;95.63;98787.41;5112233;27;20588;-74
2021/12/21 06:36:18;;;;;;;8.47;6.63;;;-4.80;92.20;;;-6.64;96.14;98785.63;5109907;27;20467;-67
2021/12/21 06:39:06;;;;;;;10.70;7.63;;;-4.80;92.00;;;-6.78;95.38;98777.66;5110486;27;20838;-69
2021/12/21 06:41:52;;;;;;;13.87;8.17;;;-4.90;91.60;;;-6.95;95.18;98778.63;5106608;27;20463;-68
2021/12/21 06:44:43;;;;;;;11.03;7.50;;;-5.00;91.20;;;-6.47;97.41;98791.69;5109379;27;20453;-68
2021/12/21 06:53:35;;;;;;;8.53;7.27;;;-4.90;92.30;;;-6.93;95.96;98768.88;5107830;28;20434;-67
2021/12/21 06:56:22;;;;;;;13.20;8.00;;;-5.00;92.40;;;-6.79;96.86;98784.72;5104762;27;20569;-68
2021/12/21 06:59:08;;;;;;;22.87;8.20;;;-5.00;93.10;;;-6.65;95.98;98788.34;5104821;27;20446;-68
2021/12/21 07:01:56;;;;;;;12.83;7.50;;;-4.90;93.30;;;-6.60;96.93;98773.16;5106922;27;20581;-67
2021/12/21 07:04:42;;;;;;;10.07;6.73;;;-4.80;94.10;;;-6.28;97.38;98788.84;5108073;27;20564;-67
2021/12/21 07:07:29;;;;;;;11.30;7.13;;;-4.60;96.70;;;-6.32;97.88;98782.09;5109742;27;20965;-67
2021/12/21 07:10:22;;;;;;;15.20;7.80;;;-4.50;96.00;;;-6.49;96.92;98794.44;5110210;27;20446;-67
2021/12/21 07:19:17;;;;;;;9.47;7.53;;;-4.70;96.10;;;-6.51;96.98;98790.19;5102320;27;20453;-68
2021/12/21 07:22:03;;;;;;;13.07;6.93;;;-4.70;94.10;;;-6.58;96.49;98790.53;5101447;27;20622;-68
2021/12/21 07:24:49;;;;;;;9.27;6.30;;;-4.70;92.90;;;-6.36;96.49;98805.06;5105085;27;20458;-68
2021/12/21 07:27:34;;;;;;;12.10;6.50;;;-4.60;94.20;;;-6.40;96.37;98777.28;5102881;27;23207;-69
2021/12/21 07:30:20;;;;;;;7.10;4.47;;;-4.50;93.20;;;-6.20;95.98;98788.41;5108567;27;20454;-67
2021/12/21 07:33:06;;;;;;;11.63;4.80;;;-4.40;92.70;;;-6.09;95.53;98786.00;5096874;27;20474;-67
2021/12/21 07:35:53;;;;;;;11.53;6.07;;;-4.30;92.10;;;-6.09;96.39;98791.25;5106509;27;20450;-67
2021/12/21 07:38:39;;;;;;;10.60;5.70;;;-4.30;92.90;;;-6.32;95.67;98798.69;5104002;27;20589;-69
2021/12/21 07:41:24;;;;;;;8.67;5.23;;;-4.40;91.60;;;-6.19;96.42;98800.63;5113935;27;20568;-67
2021/12/21 07:44:10;;;;;;;6.80;5.60;;;-4.40;92.90;;;-6.29;96.33;98788.03;5106074;27;20677;-68
2021/12/21 07:46:40;;;;;;;17.23;7.63;;;-4.40;92.20;;;-5.69;97.31;98793.25;5100143;27;21198;-68
2021/12/21 07:49:07;;;;;;;18.60;7.32;;;-4.10;97.80;;;-5.29;97.65;98792.56;5104018;27;20455;-68
2021/12/21 07:51:36;;;;;;;10.30;6.33;;;-3.70;99.00;;;-4.81;99.03;98789.56;5102571;27;20300;-68
2021/12/21 07:54:03;;;;;;;10.03;6.00;;;-3.20;99.90;;;-4.96;97.00;98786.13;5106492;27;20464;-68
2021/12/21 07:56:30;;;;;;;6.57;5.30;;;-3.20;96.00;;;-4.78;97.12;98789.38;5108897;27;20459;-69
2021/12/21 07:58:58;;;;;;;6.57;5.80;;;-3.10;97.10;;;-4.81;95.96;98788.72;5113339;27;20469;-68
2021/12/21 08:01:26;;;;;;;9.93;6.60;;;-3.00;93.70;;;-5.06;93.85;98793.75;5106306;27;20450;-68
2021/12/21 08:03:54;;;;;;;10.47;5.80;;;-3.20;90.10;;;-4.87;94.24;98796.09;5108367;27;20463;-68
2021/12/21 08:06:22;;;;;;;7.97;5.57;;;-3.20;90.50;;;-4.82;94.16;98792.28;5105371;28;20464;-68
2021/12/21 08:08:52;;;;;;;7.47;4.57;;;-3.00;91.20;;;-5.03;94.12;98800.63;5104677;27;20455;-69
2021/12/21 08:12:10;;;;;;;8.80;6.27;;;-3.20;89.80;;;-4.52;96.46;98796.53;5108652;27;20459;-69
2021/12/21 08:14:15;;;;;;;12.10;6.53;;;-2.90;94.80;;;-4.56;95.00;98796.75;5104002;27;20458;-69
2021/12/21 08:16:42;;;;;;;8.93;6.20;;;-2.90;92.30;;;-4.69;93.53;98798.47;5106932;27;20456;-68
2021/12/21 08:19:09;;;;;;;12.67;6.37;;;-2.90;90.40;;;-4.59;92.58;98794.31;5104828;27;20480;-69
2021/12/21 08:21:36;;;;;;;11.80;6.10;;;-2.80;89.00;;;-4.78;91.92;98789.38;5105371;28;20463;-70
2021/12/21 08:24:05;;;;;;;8.90;6.50;;;-2.90;86.40;;;-4.61;92.09;98795.34;5109458;27;20585;-68
2021/12/21 08:26:32;;;;;;;6.70;5.97;;;-2.90;88.00;;;-4.73;91.56;98799.63;5106159;27;20510;-68
2021/12/21 08:28:59;;;;;;;12.47;6.53;;;-2.90;85.70;;;-4.87;91.82;98798.72;5080397;28;20567;-68
2021/12/21 08:31:28;;;;;;;9.47;5.70;;;-3.00;85.30;;;-4.92;91.61;98798.19;5106261;27;20490;-69
2021/12/21 08:33:55;;;;;;;7.60;5.40;;;-3.10;85.00;;;-5.03;92.23;98800.63;5105169;28;20456;-68
2021/12/21 08:36:23;;;;;;;10.13;5.57;;;-3.20;86.20;;;-5.16;92.58;98796.13;5100688;27;20462;-68
2021/12/21 08:38:50;;;;;;;6.90;5.80;;;-3.30;86.10;;;-5.24;93.21;98803.66;5101667;27;20569;-68
2021/12/21 08:41:20;;;;;;;9.80;6.73;;;-3.30;87.00;;;-5.21;93.85;98803.50;5108365;27;20463;-69
2021/12/21 08:43:47;;;;;;;9.90;6.17;;;-3.40;88.90;;;-5.18;93.33;98805.06;5109784;27;20439;-68
2021/12/21 08:46:14;;;;;;;6.97;6.13;;;-3.30;88.20;;;-5.13;93.58;98798.56;5100335;28;20479;-69
2021/12/21 08:48:41;;;;;;;11.40;6.70;;;-3.30;88.80;;;-5.07;93.87;98799.16;5107875;27;20496;-69
2021/12/21 08:51:09;;;;;;;10.97;7.20;;;-3.20;89.80;;;-5.01;93.81;98793.47;5108304;27;20474;-69
2021/12/21 08:53:42;;;;;;;10.73;7.43;;;-3.20;89.50;;;-4.91;93.35;98794.59;5100772;27;21147;-69
2021/12/21 08:56:10;;;;;;;7.30;6.57;;;-3.10;88.80;;;-4.94;93.71;98788.66;5102902;27;20492;-68
2021/12/21 08:58:38;;;;;;;9.87;6.73;;;-3.10;89.10;;;-5.02;93.88;98781.25;5104473;27;20455;-72
2021/12/21 09:01:05;;;;;;;12.67;7.00;;;-3.10;89.60;;;-4.83;94.25;98791.47;5101201;27;20451;-72
2021/12/21 09:03:33;;;;;;;8.60;6.47;;;-3.10;90.30;;;-4.71;93.48;98785.38;5107691;27;20469;-72
2021/12/21 09:06:01;;;;;;;13.10;7.30;;;-2.90;89.70;;;-4.60;93.56;98784.69;5105038;27;20463;-72
2021/12/21 09:08:28;;;;;;;10.80;7.00;;;-2.80;89.50;;;-4.64;94.25;98782.34;5108217;27;20503;-71
2021/12/21 09:11:02;;;;;;;12.03;6.90;;;-2.80;90.00;;;-4.37;93.78;98782.31;5088011;28;20463;-71
2021/12/21 09:13:29;;;;;;;15.90;7.83;;;-2.70;90.50;;;-4.33;93.74;98778.53;5110849;27;20469;-72
2021/12/21 09:15:59;;;;;;;12.33;7.73;;;-2.60;90.20;;;-4.40;92.93;98756.16;5105151;27;20459;-73
2021/12/21 09:18:26;;;;;;;13.53;7.57;;;-2.50;89.10;;;-4.18;92.99;98791.66;5101607;27;20463;-71
2021/12/21 09:20:53;;;;;;;12.17;8.23;;;-2.40;88.70;;;-3.97;92.89;98788.53;5100970;28;20514;-70
2021/12/21 09:23:21;;;;;;;13.00;7.97;;;-2.30;89.10;;;-3.97;92.90;98788.53;5102960;28;20985;-71
2021/12/21 09:25:48;;;;;;;11.87;7.70;;;-2.20;88.90;;;-3.91;92.73;98788.09;5104308;27;20551;-72
2021/12/21 09:28:15;;;;;;;13.07;8.10;;;-2.10;88.70;;;-3.91;92.77;98783.69;5099554;28;20483;-72
2021/12/21 09:30:42;;;;;;;13.40;8.00;;;-2.10;88.20;;;-3.84;92.55;98778.84;5107775;27;20456;-71
2021/12/21 09:33:10;;;;;;;8.77;7.43;;;-2.00;88.80;;;-3.62;92.52;98783.47;5102280;28;20455;-71
2021/12/21 09:35:38;;;;;;;19.30;8.13;;;-2.00;89.40;;;-3.47;91.75;98786.84;5109182;27;20462;-72
2021/12/21 09:38:05;;;;;;;9.60;7.60;;;-1.90;89.10;;;-3.40;90.69;98786.44;5105834;28;20464;-71
2021/12/21 09:40:38;;;;;;;30.03;18.60;;;-1.70;86.90;;;-3.30;90.91;98787.44;5101364;28;20457;-71
2021/12/21 09:43:08;;;;;;;12.27;9.47;;;-1.60;87.30;;;-3.16;91.02;98784.69;5087130;28;20551;-71
2021/12/21 09:45:35;;;;;;;13.47;8.43;;;-1.50;86.40;;;-3.11;91.24;98791.44;5084263;28;20451;-67
2021/12/21 09:48:02;;;;;;;11.67;7.70;;;-1.50;87.40;;;-3.06;91.17;98800.72;5110354;27;20474;-68
2021/12/21 09:50:30;;;;;;;11.83;8.50;;;-1.40;87.50;;;-2.93;90.19;98795.41;5084598;28;20873;-68
2021/12/21 09:52:58;;;;;;;12.57;8.00;;;-1.30;86.40;;;-2.91;90.98;98801.44;5100288;28;20455;-67
2021/12/21 09:55:25;;;;;;;8.60;6.73;;;-1.30;87.40;;;-2.93;91.33;98794.56;5099241;28;20540;-68
2021/12/21 22:13:41;;;;;;;19.63;13.80;;;-4.00;94.20;;;-6.29;96.74;98761.72;5641491;23;20607;-74
2021/12/21 22:16:08;;;;;;;20.60;14.67;;;-4.00;94.60;;;-5.85;96.32;98851.22;4966300;28;20519;-77
2021/12/21 22:18:37;;;;;;;20.10;16.07;;;-4.00;93.20;;;-5.83;96.50;98873.06;4960466;28;20544;-73
2021/12/21 22:21:06;;;;;;;19.63;14.23;;;-4.00;93.30;;;-5.95;96.72;98858.00;4977167;28;20462;-75
2021/12/21 22:23:36;;;;;;;24.80;13.70;;;-4.10;94.10;;;-6.08;96.27;98819.25;4964615;28;20549;-75
2021/12/21 22:26:05;;;;;;;24.20;15.20;;;-4.00;94.60;;;-5.72;96.02;98862.72;4968806;28;20468;-75
2021/12/21 22:28:33;;;;;;;17.80;13.60;;;-3.90;93.60;;;-5.65;95.42;98870.28;4964795;28;20483;-73
2021/12/21 22:31:10;;;;;;;20.00;13.80;;;-3.80;92.30;;;-5.67;94.99;98882.69;4960474;28;20962;-74
2021/12/21 22:33:39;;;;;;;20.27;14.07;;;-3.80;91.20;;;-6.11;95.02;98808.91;4978918;28;20464;-74
2021/12/21 22:36:07;;;;;;;17.40;13.43;;;-3.80;91.10;;;-5.68;94.73;98871.28;4964319;28;20462;-74
2021/12/21 22:38:34;;;;;;;19.53;13.90;;;-3.80;90.70;;;-5.74;94.58;98875.13;4963374;28;20461;-73
2021/12/21 22:41:02;;;;;;;19.93;14.30;;;-3.90;90.50;;;-5.78;94.70;98885.94;4960817;28;20538;-74
2021/12/21 22:43:29;;;;;;;16.53;13.33;;;-3.90;90.20;;;-5.76;94.69;98890.19;4961439;28;21055;-73
2021/12/21 22:45:56;;;;;;;17.47;14.60;;;-3.90;90.40;;;-5.92;94.68;98887.59;4963128;28;20569;-75
2021/12/21 22:48:25;;;;;;;17.33;13.23;;;-4.00;90.10;;;-6.09;94.53;98878.09;4964866;28;20567;-73
2021/12/21 22:50:52;;;;;;;21.77;13.30;;;-4.10;90.10;;;-6.03;94.29;98895.31;4963507;28;20454;-73
2021/12/21 22:53:19;;;;;;;19.40;13.03;;;-4.20;90.20;;;-6.16;95.24;98892.50;4957295;28;20468;-74
2021/12/21 22:55:47;;;;;;;15.63;12.43;;;-4.30;90.50;;;-6.19;94.85;98882.19;4963296;28;20466;-73
2021/12/21 22:58:15;;;;;;;19.17;12.30;;;-4.30;91.20;;;-6.13;94.12;98892.38;4977558;28;20492;-72
2021/12/21 23:00:46;;;;;;;17.83;12.83;;;-4.30;90.90;;;-6.12;94.43;98883.53;4980558;28;20477;-72
2021/12/21 23:03:13;;;;;;;18.20;13.90;;;-4.30;91.00;;;-6.12;94.83;98897.53;4964441;28;20495;-74
2021/12/21 23:05:42;;;;;;;17.60;13.67;;;-4.30;90.60;;;-6.22;95.35;98891.06;4963239;28;20560;-73
2021/12/21 23:08:10;;;;;;;15.03;12.10;;;-4.40;91.00;;;-6.21;95.27;98897.19;4960778;28;20477;-75
2021/12/21 23:10:38;;;;;;;19.50;13.53;;;-4.40;91.30;;;-6.20;95.70;98889.25;4966921;28;20462;-72
2021/12/21 23:13:06;;;;;;;18.63;14.00;;;-4.40;92.30;;;-6.16;94.80;98880.22;4965993;28;20500;-73
2021/12/21 23:15:34;;;;;;;17.30;12.50;;;-4.30;92.40;;;-6.02;94.51;98897.00;4964847;28;20532;-73
2021/12/21 23:18:03;;;;;;;17.80;13.67;;;-4.30;91.60;;;-6.16;94.82;98863.56;4964303;28;20462;-73
2021/12/21 23:20:30;;;;;;;22.27;15.20;;;-4.20;91.20;;;-5.97;94.56;98894.91;4964776;28;20691;-74
2021/12/21 23:22:58;;;;;;;22.90;15.50;;;-4.10;90.90;;;-6.01;95.11;98891.59;4983146;28;21222;-73
2021/12/21 23:25:28;;;;;;;19.60;14.47;;;-4.10;90.80;;;-5.92;94.84;98905.19;4963003;28;20459;-74
2021/12/21 23:27:55;;;;;;;19.97;13.77;;;-4.10;90.50;;;-6.00;94.12;98903.00;4964577;28;20480;-74
2021/12/21 23:30:23;;;;;;;17.30;13.97;;;-4.10;90.10;;;-6.15;94.50;98912.63;4967423;28;20589;-73
2021/12/21 23:32:50;;;;;;;19.73;13.40;;;-4.20;89.10;;;-6.23;94.51;98904.34;4966816;28;20862;-73